Time;durP1;ratioP1;P1;durP2;ratioP2;P2;SDS_P1;SDS_P2;PMS_P1;PMS_P2;Temp;Humidity;BMP_temperature;BMP_pressure;BME280_temperature;BME280_humidity;BME280_pressure;Samples;Min_cycle;Max_cycle;Signal;HPM_P1;HPM_P2
2022/07/03 00:00:11;;;;;;;4.43;3.80;;;20.20;99.90;;;;;;5113879;28;20972;-55
2022/07/03 00:02:38;;;;;;;3.63;3.00;;;20.00;99.90;;;;;;5113624;28;20929;-54
2022/07/03 00:05:09;;;;;;;4.50;3.20;;;20.00;99.90;;;;;;5113909;28;20446;-54
2022/07/03 00:07:38;;;;;;;3.13;2.80;;;20.00;99.90;;;;;;5113537;28;20529;-54
2022/07/03 00:10:06;;;;;;;2.90;2.70;;;20.00;99.90;;;;;;5113829;28;20470;-54
2022/07/03 00:12:33;;;;;;;2.70;2.50;;;20.00;99.90;;;;;;5113989;28;20461;-54
2022/07/03 00:15:02;;;;;;;6.10;3.00;;;20.00;99.90;;;;;;5113334;28;20569;-54
2022/07/03 00:17:29;;;;;;;3.03;2.80;;;20.10;99.90;;;;;;5113755;28;20601;-55
2022/07/03 00:19:56;;;;;;;2.87;2.67;;;20.10;99.90;;;;;;5113702;28;20477;-54
2022/07/03 00:22:26;;;;;;;3.40;3.03;;;20.10;99.90;;;;;;5113431;28;20832;-54
2022/07/03 00:24:56;;;;;;;2.97;2.77;;;20.00;99.90;;;;;;5115928;28;20442;-54
2022/07/03 00:27:25;;;;;;;3.10;2.80;;;20.00;99.90;;;;;;5117226;28;20869;-54
2022/07/03 00:29:57;;;;;;;4.00;2.90;;;20.00;99.90;;;;;;5117435;28;20544;-54
2022/07/03 00:32:26;;;;;;;2.97;2.77;;;20.10;99.90;;;;;;5117483;28;20434;-55
2022/07/03 00:34:56;;;;;;;2.83;2.63;;;20.10;99.90;;;;;;5117987;28;20438;-55
2022/07/03 00:37:25;;;;;;;2.83;2.60;;;20.00;99.90;;;;;;5117035;28;20996;-54
2022/07/03 00:39:52;;;;;;;4.00;2.77;;;20.00;99.90;;;;;;5117283;28;20470;-55
2022/07/03 00:42:20;;;;;;;2.73;2.53;;;19.90;99.90;;;;;;5117206;28;20947;-55
2022/07/03 00:44:49;;;;;;;2.83;2.63;;;20.00;99.90;;;;;;5117197;28;20526;-55
2022/07/03 00:47:18;;;;;;;3.13;2.93;;;20.00;99.90;;;;;;5117453;28;20492;-55
2022/07/03 00:49:49;;;;;;;2.77;2.53;;;20.10;99.90;;;;;;5116724;28;20554;-55
2022/07/03 00:52:18;;;;;;;3.27;3.07;;;20.10;99.90;;;;;;5116796;28;20434;-55
2022/07/03 00:54:51;;;;;;;3.03;2.70;;;20.10;99.90;;;;;;5117050;28;20478;-55
2022/07/03 00:57:20;;;;;;;3.40;2.97;;;20.10;99.90;;;;;;5116961;28;20510;-54
2022/07/03 00:59:48;;;;;;;3.30;2.40;;;20.10;99.90;;;;;;5116542;28;20458;-55
2022/07/03 01:02:25;;;;;;;3.23;2.97;;;20.10;99.90;;;;;;5116559;28;21007;-54
2022/07/03 01:05:02;;;;;;;2.70;2.50;;;20.10;99.90;;;;;;5116537;28;20521;-55
2022/07/03 01:07:40;;;;;;;2.80;2.60;;;20.00;99.90;;;;;;5116780;28;20426;-55
2022/07/03 01:10:13;;;;;;;3.10;2.90;;;20.00;99.90;;;;;;5116381;28;20557;-54
2022/07/03 01:12:55;;;;;;;2.80;2.60;;;20.00;99.90;;;;;;5116719;28;20454;-55
2022/07/03 01:15:37;;;;;;;2.80;2.60;;;20.00;99.90;;;;;;5116366;28;20898;-55
2022/07/03 01:18:15;;;;;;;2.77;2.37;;;20.00;99.90;;;;;;5116447;28;20553;-55
2022/07/03 01:20:48;;;;;;;3.03;2.83;;;20.00;99.90;;;;;;5116437;28;20466;-55
2022/07/03 01:23:25;;;;;;;3.80;2.60;;;20.00;99.90;;;;;;5116274;28;20424;-55
2022/07/03 01:25:56;;;;;;;3.53;3.03;;;19.90;99.90;;;;;;5116069;28;20480;-55
2022/07/03 01:28:24;;;;;;;3.10;2.90;;;19.90;99.90;;;;;;5116414;28;20506;-55
2022/07/03 01:30:53;;;;;;;2.70;2.50;;;19.90;99.90;;;;;;5115964;28;20477;-54
2022/07/03 01:33:22;;;;;;;2.80;2.60;;;19.90;99.90;;;;;;5116076;28;20937;-55
2022/07/03 01:35:59;;;;;;;5.30;2.93;;;19.90;99.90;;;;;;5115494;28;20537;-55
2022/07/03 01:38:28;;;;;;;3.63;3.33;;;19.80;99.90;;;;;;5116130;28;20466;-55
2022/07/03 01:40:58;;;;;;;2.90;2.60;;;19.80;99.90;;;;;;5116087;27;20844;-55
2022/07/03 01:43:29;;;;;;;3.20;2.60;;;19.80;99.90;;;;;;5116268;28;20541;-55
2022/07/03 01:45:59;;;;;;;3.43;3.13;;;19.80;99.90;;;;;;5116062;28;20434;-55
2022/07/03 01:48:26;;;;;;;2.70;2.50;;;19.80;99.90;;;;;;5116217;28;20548;-55
2022/07/03 01:50:55;;;;;;;3.30;2.73;;;19.80;99.90;;;;;;5115840;28;20796;-55
2022/07/03 01:53:25;;;;;;;3.33;3.03;;;19.70;99.90;;;;;;5115962;28;20449;-55
2022/07/03 01:55:58;;;;;;;3.13;2.67;;;19.70;99.90;;;;;;5115774;28;20450;-55
2022/07/03 01:58:26;;;;;;;2.80;2.60;;;19.70;99.90;;;;;;5115710;28;20903;-55
2022/07/03 02:01:03;;;;;;;2.90;2.70;;;19.70;99.90;;;;;;5115661;28;20867;-54
2022/07/03 02:03:32;;;;;;;3.53;3.23;;;19.60;99.90;;;;;;5115374;28;20931;-55
2022/07/03 02:06:13;;;;;;;2.60;2.40;;;19.50;99.90;;;;;;5115331;28;20453;-55
2022/07/03 02:08:53;;;;;;;2.80;2.60;;;19.50;99.90;;;;;;5115292;28;20433;-55
2022/07/03 02:11:28;;;;;;;2.97;2.73;;;19.50;99.90;;;;;;5116086;28;20427;-54
2022/07/03 02:14:00;;;;;;;2.77;2.57;;;;;;;;;;5115704;28;20545;-54
2022/07/03 02:16:28;;;;;;;2.50;2.30;;;19.40;99.90;;;;;;5115508;28;20422;-54
2022/07/03 02:18:59;;;;;;;3.57;2.67;;;19.40;99.90;;;;;;5115184;28;20536;-54
2022/07/03 02:21:29;;;;;;;2.77;2.57;;;19.40;99.90;;;;;;5114952;28;20533;-55
2022/07/03 02:24:15;;;;;;;3.97;2.80;;;19.20;99.90;;;;;;5115411;28;20481;-55
2022/07/03 02:26:53;;;;;;;2.73;2.53;;;19.20;99.90;;;;;;5115274;28;20476;-55
2022/07/03 02:29:25;;;;;;;2.57;2.37;;;19.20;99.90;;;;;;5114870;28;20490;-55
2022/07/03 02:31:58;;;;;;;3.00;2.60;;;19.20;99.90;;;;;;5115170;28;20434;-55
2022/07/03 02:34:26;;;;;;;4.77;2.53;;;19.20;99.90;;;;;;5114829;28;20765;-55
2022/07/03 02:36:57;;;;;;;2.80;2.10;;;19.20;99.90;;;;;;5114956;28;20530;-55
2022/07/03 02:39:28;;;;;;;3.30;2.80;;;19.20;99.90;;;;;;5115000;28;20458;-55
2022/07/03 02:42:01;;;;;;;2.93;2.67;;;19.00;99.90;;;;;;5114629;28;20541;-55
2022/07/03 02:44:35;;;;;;;2.70;2.50;;;19.10;99.90;;;;;;5114969;28;20430;-55
2022/07/03 02:47:10;;;;;;;4.80;2.77;;;19.20;99.90;;;;;;5114003;28;20432;-55
2022/07/03 02:49:51;;;;;;;2.97;2.77;;;19.20;99.90;;;;;;5114834;28;20501;-55
2022/07/03 02:52:33;;;;;;;2.77;2.57;;;19.20;99.90;;;;;;5114543;28;20431;-55
2022/07/03 02:55:06;;;;;;;2.93;2.63;;;19.20;99.90;;;;;;5114560;28;20496;-56
2022/07/03 02:57:40;;;;;;;3.20;2.90;;;19.10;99.90;;;;;;5114654;28;20474;-55
2022/07/03 03:00:09;;;;;;;2.73;2.53;;;19.10;99.90;;;;;;5114757;27;20478;-55
2022/07/03 03:02:48;;;;;;;3.20;2.90;;;19.00;99.90;;;;;;5114615;28;20498;-56
2022/07/03 03:05:21;;;;;;;2.73;2.53;;;19.00;99.90;;;;;;5114873;28;20523;-55
2022/07/03 03:08:00;;;;;;;3.97;2.93;;;19.00;99.90;;;;;;5114607;28;20423;-56
2022/07/03 03:10:27;;;;;;;3.00;2.70;;;19.00;99.90;;;;;;5114695;28;20462;-55
2022/07/03 03:13:04;;;;;;;3.30;2.93;;;18.90;99.90;;;;;;5114376;28;20552;-55
2022/07/03 03:15:32;;;;;;;3.07;2.77;;;19.00;99.90;;;;;;5112614;28;20474;-55
2022/07/03 03:18:03;;;;;;;3.67;3.20;;;18.90;99.90;;;;;;5114990;28;20513;-55
2022/07/03 03:20:33;;;;;;;3.50;3.20;;;18.90;99.90;;;;;;5114320;28;20458;-55
2022/07/03 03:23:22;;;;;;;3.20;3.00;;;18.80;99.90;;;;;;5115175;28;20439;-55
2022/07/03 03:25:52;;;;;;;3.10;2.90;;;18.80;99.90;;;;;;5114011;28;20438;-55
2022/07/03 03:28:21;;;;;;;2.63;2.43;;;18.80;99.90;;;;;;5114273;28;20441;-55
2022/07/03 03:30:50;;;;;;;3.27;2.97;;;18.80;99.90;;;;;;5114000;28;20464;-55
2022/07/03 03:33:18;;;;;;;5.43;2.97;;;18.90;99.90;;;;;;5114829;28;20944;-55
2022/07/03 03:35:45;;;;;;;3.50;3.17;;;18.90;99.90;;;;;;5113939;28;20462;-55
2022/07/03 03:38:13;;;;;;;2.90;2.70;;;18.90;99.90;;;;;;5114007;28;20564;-55
2022/07/03 03:40:40;;;;;;;2.67;2.47;;;18.90;99.90;;;;;;5114296;28;20466;-55
2022/07/03 03:43:07;;;;;;;2.87;2.67;;;19.00;99.90;;;;;;5114204;28;20451;-55
2022/07/03 03:45:36;;;;;;;2.30;2.10;;;18.90;99.90;;;;;;5113871;28;20433;-55
2022/07/03 03:48:04;;;;;;;2.90;2.67;;;18.90;99.90;;;;;;5114172;28;20530;-55
2022/07/03 03:50:31;;;;;;;7.00;2.73;;;18.80;99.90;;;;;;5113957;28;20554;-55
2022/07/03 03:53:00;;;;;;;6.47;2.93;;;18.80;99.90;;;;;;5114042;28;20517;-55
2022/07/03 03:55:27;;;;;;;3.60;3.30;;;18.70;99.90;;;;;;5114091;28;20442;-55
2022/07/03 03:57:54;;;;;;;5.30;2.80;;;18.60;99.90;;;;;;5114405;28;20508;-55
2022/07/03 04:00:21;;;;;;;4.43;3.07;;;18.60;99.90;;;;;;5118094;28;20471;-55
2022/07/03 04:02:50;;;;;;;2.97;2.77;;;18.70;99.90;;;;;;5117767;28;20457;-55
2022/07/03 04:05:17;;;;;;;2.73;2.53;;;18.60;99.90;;;;;;5117985;28;20446;-55
2022/07/03 04:07:44;;;;;;;3.97;2.90;;;18.70;99.90;;;;;;5117936;28;20464;-55
2022/07/03 04:10:12;;;;;;;2.97;2.67;;;18.70;99.90;;;;;;5117581;28;21032;-55
2022/07/03 04:12:39;;;;;;;3.50;3.13;;;18.70;99.90;;;;;;5117926;28;20461;-56
2022/07/03 04:15:07;;;;;;;2.80;2.60;;;18.70;99.90;;;;;;5117592;28;20560;-55
2022/07/03 04:17:34;;;;;;;2.57;2.37;;;18.70;99.90;;;;;;5117608;28;20449;-55
2022/07/03 04:20:03;;;;;;;7.63;3.03;;;18.70;99.90;;;;;;5117400;28;20468;-55
2022/07/03 04:22:30;;;;;;;2.63;2.43;;;18.70;99.90;;;;;;5117697;28;20961;-55
2022/07/03 04:24:57;;;;;;;2.90;2.60;;;18.70;99.90;;;;;;5117789;28;20445;-55
2022/07/03 04:27:24;;;;;;;3.67;2.63;;;18.80;99.90;;;;;;5117525;28;20928;-56
2022/07/03 04:29:51;;;;;;;3.40;2.67;;;18.80;99.90;;;;;;5117300;28;20498;-56
2022/07/03 04:32:18;;;;;;;3.23;2.93;;;18.80;99.90;;;;;;5117178;28;20486;-55
2022/07/03 04:34:45;;;;;;;2.50;2.30;;;18.90;99.90;;;;;;5117165;28;20442;-55
2022/07/03 04:37:14;;;;;;;2.50;2.30;;;18.90;99.90;;;;;;5117439;28;20446;-55
2022/07/03 04:39:41;;;;;;;3.50;2.60;;;18.90;99.90;;;;;;5117211;28;20490;-55
2022/07/03 04:42:08;;;;;;;3.40;2.70;;;19.00;99.90;;;;;;5117300;28;20461;-56
2022/07/03 04:44:35;;;;;;;3.30;3.07;;;19.00;99.90;;;;;;5117208;28;20458;-55
2022/07/03 04:47:03;;;;;;;4.63;3.40;;;19.00;99.90;;;;;;5117195;28;20446;-56
2022/07/03 04:49:30;;;;;;;3.50;3.20;;;19.00;99.90;;;;;;5116790;28;20965;-56
2022/07/03 04:51:57;;;;;;;3.20;2.50;;;19.00;99.90;;;;;;5116900;28;20427;-55
2022/07/03 04:54:25;;;;;;;2.73;2.53;;;19.00;99.90;;;;;;5117119;28;20820;-56
2022/07/03 04:56:53;;;;;;;5.83;2.77;;;19.00;99.90;;;;;;5117461;28;20545;-55
2022/07/03 04:59:20;;;;;;;2.60;2.40;;;19.10;99.90;;;;;;5116736;28;20485;-56
2022/07/03 05:01:49;;;;;;;3.40;3.10;;;19.20;99.90;;;;;;5116913;27;20450;-55
2022/07/03 05:04:16;;;;;;;3.13;2.73;;;19.30;99.90;;;;;;5117150;28;20454;-55
2022/07/03 05:06:44;;;;;;;2.37;2.17;;;19.40;99.90;;;;;;5116780;28;20453;-55
2022/07/03 05:09:11;;;;;;;3.13;2.83;;;19.40;99.90;;;;;;5116186;28;20445;-56
2022/07/03 05:11:40;;;;;;;3.17;2.97;;;19.50;99.90;;;;;;5116123;28;20478;-55
2022/07/03 05:14:08;;;;;;;2.60;2.40;;;19.50;99.90;;;;;;5116194;28;20423;-56
2022/07/03 05:16:35;;;;;;;3.27;2.80;;;19.60;99.90;;;;;;5116632;28;20446;-56
2022/07/03 05:19:02;;;;;;;3.33;3.03;;;19.70;99.90;;;;;;5116437;28;20517;-56
2022/07/03 05:21:30;;;;;;;3.70;2.83;;;19.70;99.90;;;;;;5116525;28;20465;-56
2022/07/03 05:23:57;;;;;;;3.47;2.67;;;19.80;99.90;;;;;;5116475;28;20450;-55
2022/07/03 05:26:25;;;;;;;2.60;2.40;;;19.80;99.90;;;;;;5116413;28;20450;-55
2022/07/03 05:28:53;;;;;;;2.93;2.53;;;20.00;99.90;;;;;;5116380;28;20442;-56
2022/07/03 05:31:21;;;;;;;2.93;2.73;;;20.10;99.90;;;;;;5116020;28;20998;-55
2022/07/03 05:33:48;;;;;;;2.80;2.60;;;20.20;99.90;;;;;;5115962;28;20475;-55
2022/07/03 05:36:15;;;;;;;4.70;2.50;;;20.20;99.90;;;;;;5115894;28;20443;-55
2022/07/03 05:41:27;;;;;;;3.07;2.70;;;20.70;99.90;;;;;;5116111;28;20453;-55
2022/07/03 05:43:55;;;;;;;2.50;2.30;;;20.80;99.90;;;;;;5115692;28;20447;-55
2022/07/03 05:46:22;;;;;;;2.40;2.03;;;20.80;99.90;;;;;;5116072;28;20864;-56
2022/07/03 05:48:49;;;;;;;2.87;2.50;;;21.00;99.90;;;;;;5115513;28;20447;-55
2022/07/03 05:51:17;;;;;;;2.43;2.23;;;21.10;99.90;;;;;;5115527;28;20545;-55
2022/07/03 05:53:44;;;;;;;2.83;2.30;;;21.10;99.90;;;;;;5115624;28;20533;-55
2022/07/03 05:56:11;;;;;;;2.50;2.27;;;21.20;99.90;;;;;;5115803;28;20562;-55
2022/07/03 05:58:38;;;;;;;3.20;2.90;;;21.20;99.90;;;;;;5115339;28;20485;-55
2022/07/03 06:01:07;;;;;;;2.47;2.27;;;21.20;99.90;;;;;;5115641;28;20466;-56
2022/07/03 06:03:34;;;;;;;2.83;2.63;;;21.20;99.90;;;;;;5115680;28;20449;-55
2022/07/03 06:06:01;;;;;;;2.80;2.50;;;21.30;99.90;;;;;;5115316;28;20533;-55
2022/07/03 06:08:28;;;;;;;2.47;2.27;;;21.40;99.90;;;;;;5115842;28;20805;-56
2022/07/03 06:10:56;;;;;;;2.47;2.27;;;21.40;99.90;;;;;;5115504;27;20467;-56
2022/07/03 06:13:23;;;;;;;3.90;2.20;;;21.50;99.90;;;;;;5115619;28;20454;-56
2022/07/03 06:15:50;;;;;;;5.13;4.03;;;21.60;99.90;;;;;;5115191;28;20506;-56
2022/07/03 06:18:19;;;;;;;2.47;2.27;;;21.70;99.90;;;;;;5115356;28;20837;-56
2022/07/03 06:20:46;;;;;;;3.00;2.70;;;21.70;99.90;;;;;;5115025;28;20553;-55
2022/07/03 06:23:13;;;;;;;2.73;2.10;;;21.80;99.90;;;;;;5114564;28;20443;-56
2022/07/03 06:25:40;;;;;;;4.23;2.47;;;21.80;99.90;;;;;;5114855;28;20450;-56
2022/07/03 06:28:07;;;;;;;4.33;2.40;;;21.90;99.90;;;;;;5115157;28;20470;-55
2022/07/03 06:30:35;;;;;;;2.83;2.50;;;22.00;99.90;;;;;;5115265;28;20501;-55
2022/07/03 06:33:02;;;;;;;3.03;2.73;;;22.10;99.90;;;;;;5114817;28;20506;-55
2022/07/03 06:35:30;;;;;;;3.17;2.93;;;22.20;99.90;;;;;;5114789;28;20925;-56
2022/07/03 06:38:02;;;;;;;2.70;2.50;;;22.20;99.90;;;;;;5114704;28;20446;-55
2022/07/03 06:40:29;;;;;;;2.80;2.60;;;22.30;99.90;;;;;;5114680;28;20459;-55
2022/07/03 06:42:56;;;;;;;2.43;2.17;;;22.40;99.90;;;;;;5114665;28;20462;-55
2022/07/03 06:45:23;;;;;;;3.00;2.20;;;22.40;99.90;;;;;;5114856;28;20913;-55
2022/07/03 06:47:51;;;;;;;3.07;2.40;;;22.70;99.90;;;;;;5115040;28;20802;-56
2022/07/03 06:50:18;;;;;;;2.03;1.87;;;22.80;99.90;;;;;;5114654;28;20469;-56
2022/07/03 06:52:46;;;;;;;2.20;1.70;;;23.00;99.90;;;;;;5114375;28;21028;-56
2022/07/03 06:55:14;;;;;;;2.60;2.13;;;23.10;99.90;;;;;;5114358;28;20499;-56
2022/07/03 06:57:41;;;;;;;2.40;2.20;;;23.20;99.90;;;;;;5114507;28;20454;-56
2022/07/03 07:00:10;;;;;;;1.80;1.70;;;23.30;99.90;;;;;;5114708;28;20482;-56
2022/07/03 07:02:37;;;;;;;3.03;2.20;;;23.40;99.90;;;;;;5114694;28;20461;-55
2022/07/03 07:05:05;;;;;;;2.87;1.90;;;23.70;99.90;;;;;;5114578;28;20542;-55
2022/07/03 07:07:32;;;;;;;1.90;1.70;;;24.20;99.90;;;;;;5114294;28;20529;-56
2022/07/03 07:10:01;;;;;;;1.87;1.70;;;24.90;99.90;;;;;;5114514;28;20459;-55
2022/07/03 07:12:28;;;;;;;2.33;2.13;;;25.70;99.90;;;;;;5114469;28;20800;-56
2022/07/03 07:14:55;;;;;;;2.00;1.80;;;26.30;99.10;;;;;;5114240;28;20490;-56
2022/07/03 07:17:22;;;;;;;2.60;1.57;;;27.10;98.00;;;;;;5114217;28;20941;-56
2022/07/03 07:19:49;;;;;;;2.40;2.20;;;27.60;95.50;;;;;;5114240;28;20486;-56
2022/07/03 07:22:17;;;;;;;1.93;1.43;;;27.50;93.60;;;;;;5114009;28;20932;-56
2022/07/03 07:24:44;;;;;;;2.73;1.60;;;27.70;92.60;;;;;;5113918;28;20530;-56
2022/07/03 07:27:13;;;;;;;1.83;1.73;;;27.60;92.70;;;;;;5114212;28;20529;-56
2022/07/03 07:29:40;;;;;;;2.23;1.60;;;27.90;92.70;;;;;;5114198;28;20546;-56
2022/07/03 07:32:08;;;;;;;4.30;1.60;;;28.40;91.00;;;;;;5113935;28;20945;-56
2022/07/03 07:34:35;;;;;;;2.27;1.70;;;28.80;90.30;;;;;;5113522;28;20527;-56
2022/07/03 07:37:03;;;;;;;1.80;1.70;;;29.20;89.00;;;;;;5114148;28;20529;-56
2022/07/03 07:39:30;;;;;;;3.07;1.50;;;29.50;87.80;;;;;;5113964;28;20575;-56
2022/07/03 07:41:57;;;;;;;2.17;1.70;;;30.00;86.90;;;;;;5114038;28;20529;-57
2022/07/03 07:44:25;;;;;;;2.47;1.40;;;30.20;84.50;;;;;;5113843;28;20427;-56
2022/07/03 07:46:53;;;;;;;2.93;1.70;;;30.20;79.00;;;;;;5114050;28;20452;-56
2022/07/03 07:49:20;;;;;;;1.60;1.50;;;30.60;77.20;;;;;;5114011;28;20458;-57
2022/07/03 07:51:47;;;;;;;2.87;1.70;;;30.30;78.70;;;;;;5114068;28;20864;-56
2022/07/03 07:54:14;;;;;;;4.63;1.70;;;30.30;77.40;;;;;;5113878;28;20442;-57
2022/07/03 07:56:41;;;;;;;2.53;1.60;;;30.20;76.50;;;;;;5113629;28;20955;-57
2022/07/03 07:59:08;;;;;;;2.03;1.50;;;30.90;76.70;;;;;;5113400;28;20484;-56
2022/07/03 08:07:06;;;;;;;1.53;1.43;;;30.70;75.40;;;;;;5114160;28;20402;-57
2022/07/03 08:09:33;;;;;;;2.83;1.70;;;31.00;73.60;;;;;;5114211;28;20462;-57
2022/07/03 08:12:00;;;;;;;1.63;1.43;;;31.10;76.70;;;;;;5114113;28;20529;-57
2022/07/03 08:14:28;;;;;;;2.60;1.73;;;;;;;;;;5113385;28;20916;-57
2022/07/03 08:16:56;;;;;;;1.60;1.50;;;31.40;72.90;;;;;;5113867;28;20441;-57
2022/07/03 08:19:23;;;;;;;1.70;1.60;;;31.30;68.10;;;;;;5113640;28;20486;-56
2022/07/03 08:21:51;;;;;;;2.10;1.60;;;31.50;71.30;;;;;;5113545;28;20807;-57
2022/07/03 08:24:18;;;;;;;2.17;1.20;;;31.80;67.80;;;;;;5113464;28;20430;-56
2022/07/03 08:26:45;;;;;;;3.47;1.40;;;31.50;65.60;;;;;;5113689;28;20560;-56
2022/07/03 08:29:12;;;;;;;2.10;1.37;;;32.00;67.50;;;;;;5113477;28;20426;-56
2022/07/03 08:31:39;;;;;;;1.83;1.30;;;31.80;62.00;;;;;;5114485;28;20452;-56
2022/07/03 08:34:12;;;;;;;3.20;1.57;;;31.80;61.20;;;;;;5113394;28;20503;-57
2022/07/03 08:36:41;;;;;;;1.63;1.40;;;31.90;60.20;;;;;;5113310;28;20919;-57
2022/07/03 08:39:09;;;;;;;6.00;1.40;;;32.00;60.00;;;;;;5113446;28;20482;-56
2022/07/03 08:41:38;;;;;;;1.67;1.57;;;31.80;60.00;;;;;;5113549;28;20442;-57
2022/07/03 08:44:06;;;;;;;8.17;1.60;;;32.30;59.00;;;;;;5113258;28;20928;-56
2022/07/03 08:46:34;;;;;;;1.73;1.40;;;31.90;59.80;;;;;;5116626;28;20454;-56
2022/07/03 08:49:02;;;;;;;1.20;1.10;;;32.20;61.30;;;;;;5117176;28;20446;-57
2022/07/03 08:51:32;;;;;;;1.70;1.60;;;32.60;58.30;;;;;;5117106;28;20444;-56
2022/07/03 08:54:02;;;;;;;1.77;1.67;;;33.00;57.70;;;;;;5116859;28;20477;-56
2022/07/03 08:56:30;;;;;;;1.60;1.50;;;32.50;57.80;;;;;;5116801;28;20482;-58
2022/07/03 08:58:59;;;;;;;2.60;1.67;;;32.20;58.20;;;;;;5116979;28;20470;-57
2022/07/03 09:01:26;;;;;;;1.97;1.57;;;32.10;58.80;;;;;;5116734;28;20441;-57
2022/07/03 09:03:54;;;;;;;1.50;1.40;;;32.40;58.80;;;;;;5116839;28;20480;-57
2022/07/03 09:06:22;;;;;;;2.00;1.80;;;32.50;58.20;;;;;;5117015;28;20537;-57
2022/07/03 09:08:51;;;;;;;2.03;1.83;;;32.00;58.00;;;;;;5116706;28;20504;-56
2022/07/03 09:11:18;;;;;;;1.50;1.40;;;32.20;58.40;;;;;;5116315;28;20549;-56
2022/07/03 09:13:45;;;;;;;3.03;1.40;;;32.30;58.20;;;;;;5116699;28;20450;-57
2022/07/03 09:16:17;;;;;;;1.87;1.30;;;32.90;57.20;;;;;;5116132;28;20514;-57
2022/07/03 09:18:45;;;;;;;4.13;1.50;;;32.90;57.70;;;;;;5116737;28;20453;-57
2022/07/03 09:21:13;;;;;;;1.40;1.30;;;33.60;56.90;;;;;;5116372;28;20581;-57
2022/07/03 09:23:42;;;;;;;1.40;1.30;;;33.50;55.90;;;;;;5116481;28;20446;-57
2022/07/03 09:26:15;;;;;;;1.50;1.40;;;33.70;56.80;;;;;;5116462;28;20446;-57
2022/07/03 09:28:45;;;;;;;1.50;1.40;;;33.90;57.90;;;;;;5116728;28;20442;-57
2022/07/03 09:31:13;;;;;;;3.40;1.67;;;34.10;56.30;;;;;;5115974;28;20988;-57
2022/07/03 09:34:05;;;;;;;7.33;1.47;;;33.40;55.10;;;;;;5116297;28;20452;-57
2022/07/03 09:36:43;;;;;;;1.50;1.40;;;32.50;55.30;;;;;;5100742;28;21015;-57
2022/07/03 09:39:18;;;;;;;2.13;1.53;;;33.50;57.20;;;;;;5116034;28;20480;-57
2022/07/03 09:42:00;;;;;;;1.93;1.70;;;33.60;54.60;;;;;;5115759;28;20892;-57
2022/07/03 09:44:33;;;;;;;1.67;1.47;;;33.40;54.80;;;;;;5116044;28;20505;-56
2022/07/03 09:47:14;;;;;;;1.40;1.20;;;33.10;53.70;;;;;;5116004;28;20489;-56
2022/07/03 09:49:50;;;;;;;2.10;1.70;;;33.40;55.30;;;;;;5115682;28;20468;-57
2022/07/03 09:52:32;;;;;;;1.40;1.30;;;33.60;54.80;;;;;;5116004;28;20499;-57
2022/07/03 09:55:01;;;;;;;1.80;1.30;;;33.80;54.80;;;;;;5115979;28;20444;-57
2022/07/03 09:57:30;;;;;;;1.63;1.53;;;34.20;55.60;;;;;;5115546;28;20495;-56
2022/07/03 10:00:15;;;;;;;1.67;1.23;;;35.10;54.70;;;;;;5115711;28;20485;-56
2022/07/03 10:03:03;;;;;;;1.97;1.40;;;35.30;54.50;;;;;;5115518;28;20446;-57
2022/07/03 10:05:32;;;;;;;1.30;1.20;;;35.70;54.00;;;;;;5115830;28;20473;-57
2022/07/03 10:08:00;;;;;;;1.53;1.23;;;35.40;55.10;;;;;;5115633;28;20532;-57
2022/07/03 10:10:29;;;;;;;1.87;1.50;;;35.60;53.50;;;;;;5115530;28;20553;-56
2022/07/03 10:12:58;;;;;;;1.70;1.43;;;34.60;54.30;;;;;;5115473;28;20446;-56
2022/07/03 10:15:28;;;;;;;1.40;1.30;;;35.30;53.70;;;;;;5115981;28;20506;-56
2022/07/03 10:17:57;;;;;;;1.50;1.40;;;35.40;54.40;;;;;;5115544;28;20525;-56
2022/07/03 10:20:29;;;;;;;1.37;1.27;;;35.60;54.50;;;;;;5115775;28;20486;-57
2022/07/03 10:22:57;;;;;;;1.70;1.50;;;34.50;52.90;;;;;;5116160;28;20438;-57
2022/07/03 10:25:25;;;;;;;1.30;1.20;;;34.40;53.80;;;;;;5115392;28;20507;-56
2022/07/03 10:27:52;;;;;;;2.50;1.47;;;33.90;52.90;;;;;;5115135;28;20578;-56
2022/07/03 10:30:22;;;;;;;1.50;1.37;;;33.90;54.80;;;;;;5115143;28;20557;-56
2022/07/03 10:32:52;;;;;;;1.93;1.43;;;33.80;53.60;;;;;;5115180;28;20474;-56
2022/07/03 10:35:22;;;;;;;1.40;1.30;;;33.70;53.00;;;;;;5115644;28;20456;-56
2022/07/03 10:38:21;;;;;;;2.03;1.40;;;34.20;53.70;;;;;;5115293;28;20505;-56
2022/07/03 10:46:30;;;;;;;1.30;1.20;;;33.60;53.10;;;;;;5114692;28;20471;-56
2022/07/03 10:49:00;;;;;;;1.77;1.57;;;33.20;53.00;;;;;;5114787;28;20541;-56
2022/07/03 10:51:29;;;;;;;2.00;1.67;;;33.40;53.80;;;;;;5114688;28;20920;-56
2022/07/03 10:54:16;;;;;;;2.00;1.77;;;33.60;53.10;;;;;;5115581;28;20525;-56
2022/07/03 10:57:06;;;;;;;1.90;1.50;;;33.70;54.30;;;;;;5114329;28;20537;-56
2022/07/03 11:00:13;;;;;;;1.40;1.30;;;34.10;53.20;;;;;;5114181;28;20552;-56
2022/07/03 11:02:43;;;;;;;2.83;1.50;;;34.70;53.00;;;;;;5114266;28;20988;-57
2022/07/03 11:05:21;;;;;;;1.60;1.50;;;34.80;53.40;;;;;;5114899;28;20449;-57
2022/07/03 11:08:06;;;;;;;3.43;1.67;;;34.90;53.80;;;;;;5114135;28;20461;-57
2022/07/03 11:10:40;;;;;;;1.30;1.20;;;35.00;54.10;;;;;;5114387;28;20497;-57
2022/07/03 11:13:09;;;;;;;1.63;1.53;;;35.60;52.50;;;;;;5114479;28;20461;-57
2022/07/03 11:15:41;;;;;;;1.50;1.40;;;35.50;52.00;;;;;;5114084;28;20469;-57
2022/07/03 11:18:13;;;;;;;2.10;1.57;;;35.30;52.40;;;;;;5114181;28;20466;-56
2022/07/03 11:21:24;;;;;;;1.60;1.50;;;34.30;51.80;;;;;;5113975;28;20486;-56
2022/07/03 11:24:06;;;;;;;4.80;1.87;;;33.90;51.70;;;;;;5114460;28;20518;-56
2022/07/03 11:26:34;;;;;;;3.43;1.67;;;34.00;52.10;;;;;;5114397;28;20430;-56
2022/07/03 11:29:01;;;;;;;1.53;1.40;;;34.00;51.80;;;;;;5114144;28;20846;-56
2022/07/03 11:31:28;;;;;;;1.60;1.33;;;34.10;52.60;;;;;;5113992;28;20509;-56
2022/07/03 11:34:01;;;;;;;1.90;1.70;;;34.00;53.00;;;;;;5114071;28;21003;-56
2022/07/03 11:36:29;;;;;;;1.53;1.43;;;34.40;52.20;;;;;;5113844;28;21024;-56
2022/07/03 11:39:09;;;;;;;1.60;1.30;;;34.10;52.00;;;;;;5113745;28;20968;-56
2022/07/03 11:41:47;;;;;;;2.03;1.57;;;34.40;52.90;;;;;;5114220;28;20569;-57
2022/07/03 11:44:19;;;;;;;1.53;1.43;;;35.00;52.00;;;;;;5113835;28;20462;-56
2022/07/03 11:46:51;;;;;;;2.37;1.43;;;34.70;52.40;;;;;;5113777;28;20519;-56
2022/07/03 11:49:22;;;;;;;2.77;1.70;;;34.30;52.30;;;;;;5113956;28;20473;-56
2022/07/03 11:51:57;;;;;;;1.80;1.67;;;34.70;51.40;;;;;;5114065;28;20442;-56
2022/07/03 11:54:24;;;;;;;2.13;1.40;;;34.20;51.50;;;;;;5113802;28;20488;-56
2022/07/03 11:56:52;;;;;;;2.13;1.40;;;33.60;52.10;;;;;;5114186;28;20471;-56
2022/07/03 11:59:19;;;;;;;1.73;1.50;;;33.20;54.10;;;;;;5113818;28;21023;-56
2022/07/03 12:01:47;;;;;;;1.50;1.40;;;33.00;52.30;;;;;;5113877;28;20486;-56
2022/07/03 12:04:16;;;;;;;1.77;1.40;;;33.30;53.30;;;;;;5114030;28;20453;-56
2022/07/03 12:06:48;;;;;;;1.90;1.60;;;33.20;54.80;;;;;;5114087;28;20698;-56
2022/07/03 12:09:21;;;;;;;2.13;1.50;;;32.70;53.80;;;;;;5113564;28;20477;-56
2022/07/03 12:11:59;;;;;;;1.80;1.43;;;32.10;54.20;;;;;;5113517;28;20796;-55
2022/07/03 12:14:43;;;;;;;1.90;1.70;;;31.70;54.60;;;;;;5113609;28;20446;-55
2022/07/03 12:17:12;;;;;;;1.80;1.70;;;31.40;55.20;;;;;;5113897;28;20521;-56
2022/07/03 12:19:45;;;;;;;1.70;1.60;;;32.10;55.80;;;;;;5115950;28;20466;-55
2022/07/03 12:22:22;;;;;;;2.03;1.60;;;33.20;55.60;;;;;;5117304;28;20569;-56
2022/07/03 12:24:57;;;;;;;1.90;1.63;;;33.50;54.70;;;;;;5117708;28;20521;-56
2022/07/03 12:27:25;;;;;;;1.43;1.30;;;32.60;53.70;;;;;;5117493;28;20418;-55
2022/07/03 12:29:52;;;;;;;1.53;1.43;;;32.60;55.20;;;;;;5117127;28;20898;-55
2022/07/03 12:32:20;;;;;;;1.77;1.67;;;32.00;54.40;;;;;;5117615;28;20446;-55
2022/07/03 12:34:48;;;;;;;1.87;1.77;;;31.60;55.10;;;;;;5117187;28;20442;-55
2022/07/03 12:37:16;;;;;;;5.50;2.00;;;31.30;54.80;;;;;;5117421;28;20485;-55
2022/07/03 12:39:45;;;;;;;1.80;1.70;;;31.30;56.20;;;;;;5116947;28;20472;-55
2022/07/03 12:42:20;;;;;;;2.00;1.80;;;30.90;56.30;;;;;;5116977;28;20573;-55
2022/07/03 12:44:57;;;;;;;2.03;1.60;;;30.80;57.00;;;;;;5116820;28;20932;-55
2022/07/03 12:47:25;;;;;;;1.60;1.50;;;30.90;56.90;;;;;;5116793;28;20503;-55
2022/07/03 12:50:00;;;;;;;1.53;1.43;;;31.20;58.00;;;;;;5116969;28;20474;-55
2022/07/03 12:52:30;;;;;;;2.33;1.50;;;32.10;55.30;;;;;;5117110;28;20802;-56
2022/07/03 12:54:58;;;;;;;1.73;1.63;;;32.70;55.90;;;;;;5116695;28;20861;-56
2022/07/03 13:00:16;;;;;;;1.63;1.53;;;32.90;56.00;;;;;;5116636;28;20530;-55
2022/07/03 13:02:45;;;;;;;1.80;1.70;;;32.50;54.60;;;;;;5116618;28;20433;-55
2022/07/03 13:05:17;;;;;;;1.57;1.47;;;32.20;55.80;;;;;;5117644;28;20545;-55
2022/07/03 13:07:47;;;;;;;1.87;1.67;;;32.60;56.00;;;;;;5116709;28;20529;-55
2022/07/03 13:10:15;;;;;;;1.73;1.63;;;32.80;55.60;;;;;;5116751;28;20486;-55
2022/07/03 13:12:51;;;;;;;1.93;1.50;;;32.90;54.50;;;;;;5116278;28;20461;-55
2022/07/03 13:15:20;;;;;;;1.70;1.60;;;33.00;54.60;;;;;;5116082;28;20512;-55
2022/07/03 13:17:58;;;;;;;1.63;1.47;;;33.00;54.70;;;;;;5116380;28;20952;-55
2022/07/03 13:20:27;;;;;;;2.50;1.60;;;33.40;54.90;;;;;;5116451;28;20561;-55